Time;durP1;ratioP1;P1;durP2;ratioP2;P2;SDS_P1;SDS_P2;PMS_P1;PMS_P2;Temp;Humidity;BMP_temperature;BMP_pressure;BME280_temperature;BME280_humidity;BME280_pressure;Samples;Min_cycle;Max_cycle;Signal;HPM_P1;HPM_P2
2024/01/07 00:01:58;;;;;;;15.30;5.50;;;22.10;54.20;;;;;;5037592;28;20021;-63
2024/01/07 00:04:23;;;;;;;11.48;4.93;;;22.10;54.20;;;;;;5035906;28;20032;-64
2024/01/07 00:06:49;;;;;;;12.57;5.07;;;22.10;54.20;;;;;;5035662;28;20486;-64
2024/01/07 00:09:16;;;;;;;11.25;4.85;;;22.10;54.20;;;;;;5038336;28;20064;-63
2024/01/07 00:11:42;;;;;;;12.38;5.05;;;22.10;54.20;;;;;;5039222;28;20124;-64
2024/01/07 00:14:08;;;;;;;11.48;4.80;;;22.10;54.20;;;;;;5040030;28;20112;-64
2024/01/07 00:16:34;;;;;;;9.93;4.95;;;22.00;54.20;;;;;;5037726;28;20025;-65
2024/01/07 00:18:59;;;;;;;10.27;4.75;;;22.00;54.30;;;;;;5038054;28;20021;-64
2024/01/07 00:21:25;;;;;;;14.32;4.85;;;22.00;54.20;;;;;;5041946;28;20025;-66
2024/01/07 00:23:51;;;;;;;12.77;5.10;;;22.00;54.30;;;;;;5038486;28;20504;-66
2024/01/07 00:26:16;;;;;;;11.38;4.85;;;21.90;54.20;;;;;;5038291;28;20099;-65
2024/01/07 00:28:42;;;;;;;9.95;4.47;;;21.90;54.30;;;;;;5037349;28;20489;-65
2024/01/07 00:31:09;;;;;;;10.55;4.63;;;21.90;54.30;;;;;;5037529;28;20036;-65
2024/01/07 00:33:34;;;;;;;10.07;4.63;;;21.90;54.40;;;;;;5038060;28;20474;-66
2024/01/07 00:36:01;;;;;;;9.70;4.38;;;21.90;54.30;;;;;;5036559;28;20029;-65
2024/01/07 00:38:26;;;;;;;9.27;3.90;;;21.90;54.40;;;;;;5039587;28;20033;-65
2024/01/07 00:40:52;;;;;;;11.57;4.38;;;21.80;54.30;;;;;;5037515;28;20499;-66
2024/01/07 00:43:18;;;;;;;9.30;4.35;;;21.80;54.40;;;;;;5039840;28;20025;-66
2024/01/07 00:45:44;;;;;;;9.55;4.47;;;21.80;54.40;;;;;;5038387;28;20036;-65
2024/01/07 00:48:10;;;;;;;10.65;4.20;;;21.80;54.40;;;;;;5035049;28;20033;-65
2024/01/07 00:50:35;;;;;;;10.48;4.47;;;21.80;54.40;;;;;;5035590;28;20029;-66
2024/01/07 00:53:01;;;;;;;10.75;4.25;;;21.80;54.40;;;;;;5037165;28;20497;-65
2024/01/07 00:55:26;;;;;;;9.50;3.95;;;21.70;54.40;;;;;;5036893;28;20100;-66
2024/01/07 00:57:52;;;;;;;9.98;4.47;;;21.70;54.30;;;;;;5037071;28;20116;-66
2024/01/07 01:00:18;;;;;;;10.10;4.35;;;21.70;54.40;;;;;;5038755;28;20036;-66
2024/01/07 01:02:44;;;;;;;10.63;4.38;;;21.70;54.40;;;;;;5039276;28;20037;-64
2024/01/07 01:05:09;;;;;;;10.57;4.32;;;21.70;54.50;;;;;;5035893;28;20025;-63
2024/01/07 01:07:35;;;;;;;8.45;4.18;;;21.70;54.50;;;;;;5039360;28;20064;-64
2024/01/07 01:10:00;;;;;;;8.98;3.92;;;21.60;54.50;;;;;;5038917;28;20033;-64
2024/01/07 01:12:26;;;;;;;9.55;3.80;;;21.60;54.50;;;;;;5037117;28;20545;-64
2024/01/07 01:14:52;;;;;;;8.70;4.20;;;21.60;54.50;;;;;;5038704;28;20029;-65
2024/01/07 01:17:17;;;;;;;11.45;4.25;;;21.60;54.50;;;;;;5038840;28;20623;-64
2024/01/07 01:19:43;;;;;;;9.77;3.70;;;21.60;54.50;;;;;;5032059;28;20026;-65
2024/01/07 01:22:08;;;;;;;9.02;3.85;;;21.60;54.50;;;;;;5037354;28;20539;-64
2024/01/07 01:24:34;;;;;;;8.93;3.65;;;21.50;54.50;;;;;;5037856;28;20067;-65
2024/01/07 01:27:00;;;;;;;8.38;3.55;;;21.50;54.50;;;;;;5037431;28;20154;-65
2024/01/07 01:29:25;;;;;;;6.72;3.25;;;21.50;54.50;;;;;;5036270;28;20029;-63
2024/01/07 01:31:51;;;;;;;8.95;3.92;;;21.50;54.60;;;;;;5037371;28;20510;-67
2024/01/07 01:34:17;;;;;;;7.15;3.47;;;21.50;54.60;;;;;;5039793;28;20025;-64
2024/01/07 01:36:42;;;;;;;7.93;3.30;;;21.50;54.60;;;;;;5035583;28;20087;-65
2024/01/07 01:39:08;;;;;;;7.30;3.42;;;21.50;55.10;;;;;;5036535;28;20033;-63
2024/01/07 01:41:34;;;;;;;7.47;3.65;;;21.50;54.60;;;;;;5036197;28;20037;-66
2024/01/07 01:44:00;;;;;;;7.82;3.38;;;21.50;54.60;;;;;;5037043;28;20128;-64
2024/01/07 01:46:28;;;;;;;7.63;3.63;;;21.40;54.60;;;;;;5038372;28;20190;-64
2024/01/07 01:48:54;;;;;;;6.53;3.17;;;21.40;54.60;;;;;;5039051;28;20025;-64
2024/01/07 01:51:21;;;;;;;6.88;3.38;;;21.40;54.60;;;;;;5029554;28;20041;-70
2024/01/07 01:53:49;;;;;;;6.55;3.15;;;21.40;54.70;;;;;;5035280;28;20069;-69
2024/01/07 01:56:18;;;;;;;9.15;3.75;;;21.40;54.70;;;;;;5036921;28;20401;-71
2024/01/07 01:58:44;;;;;;;6.22;3.00;;;21.40;54.70;;;;;;5037012;28;20060;-69
2024/01/07 02:01:10;;;;;;;6.43;3.00;;;21.40;54.70;;;;;;5030727;28;20030;-69
2024/01/07 02:03:35;;;;;;;6.72;3.50;;;21.30;54.70;;;;;;5034274;28;20090;-69
2024/01/07 02:06:01;;;;;;;7.97;3.60;;;21.30;54.70;;;;;;5033840;28;20025;-71
2024/01/07 02:08:27;;;;;;;7.75;3.70;;;21.30;54.70;;;;;;5038699;28;20057;-69
2024/01/07 02:10:53;;;;;;;7.15;3.05;;;21.30;54.70;;;;;;5033440;28;20071;-66
2024/01/07 02:13:18;;;;;;;6.95;3.17;;;21.30;54.70;;;;;;5038661;28;20100;-64
2024/01/07 02:15:44;;;;;;;6.95;3.60;;;21.30;54.70;;;;;;5037299;28;20141;-65
2024/01/07 02:18:10;;;;;;;6.82;3.55;;;21.30;54.70;;;;;;5036162;28;20482;-65
2024/01/07 02:20:35;;;;;;;6.28;3.10;;;21.30;54.70;;;;;;5034928;28;20421;-65
2024/01/07 02:23:02;;;;;;;4.97;3.13;;;21.30;54.70;;;;;;5038164;28;20390;-64
2024/01/07 02:25:28;;;;;;;5.30;2.53;;;21.20;54.70;;;;;;5036777;28;20027;-65
2024/01/07 02:27:53;;;;;;;6.45;2.80;;;21.20;54.70;;;;;;5038395;28;20527;-64
2024/01/07 02:30:19;;;;;;;5.57;2.95;;;21.20;54.70;;;;;;5040479;28;20033;-65
2024/01/07 02:32:44;;;;;;;6.95;3.00;;;21.20;54.70;;;;;;5038934;28;20037;-65
2024/01/07 02:35:10;;;;;;;6.60;2.60;;;21.20;54.80;;;;;;5041269;28;20506;-64
2024/01/07 02:37:36;;;;;;;6.45;3.13;;;21.20;54.80;;;;;;5038659;28;20029;-65
2024/01/07 02:40:01;;;;;;;6.95;3.03;;;21.20;54.80;;;;;;5042367;28;20021;-64
2024/01/07 02:42:27;;;;;;;7.00;3.15;;;21.20;55.30;;;;;;5041394;28;20036;-65
2024/01/07 02:44:53;;;;;;;6.53;3.08;;;21.20;54.80;;;;;;5042075;28;20060;-66
2024/01/07 02:47:18;;;;;;;6.03;2.65;;;21.10;54.70;;;;;;5040623;28;20164;-66
2024/01/07 02:49:44;;;;;;;5.65;2.63;;;21.10;54.70;;;;;;5043066;28;20092;-66
2024/01/07 02:52:09;;;;;;;6.47;2.90;;;21.10;54.80;;;;;;5038317;28;20513;-65
2024/01/07 02:54:35;;;;;;;6.88;2.88;;;21.10;54.80;;;;;;5040320;28;20842;-65
2024/01/07 02:57:01;;;;;;;4.70;2.30;;;21.10;54.80;;;;;;5038038;28;20037;-65
2024/01/07 02:59:27;;;;;;;5.88;2.67;;;21.10;54.80;;;;;;5038588;28;20320;-66
2024/01/07 03:01:52;;;;;;;6.63;2.85;;;21.10;54.90;;;;;;5039094;28;20101;-70
2024/01/07 03:04:18;;;;;;;6.45;2.88;;;21.10;54.80;;;;;;5040839;28;20041;-70
2024/01/07 03:06:44;;;;;;;5.65;2.50;;;21.10;54.80;;;;;;5038293;28;20045;-70
2024/01/07 03:09:10;;;;;;;4.85;2.60;;;21.00;54.80;;;;;;5040494;28;20033;-69
2024/01/07 03:11:44;;;;;;;6.05;2.70;;;21.00;54.80;;;;;;5040329;28;20029;-70
2024/01/07 03:14:10;;;;;;;5.10;2.40;;;21.00;54.80;;;;;;5053578;28;20041;-70
2024/01/07 03:16:36;;;;;;;5.20;2.55;;;21.00;54.80;;;;;;5039423;28;20389;-70
2024/01/07 03:19:02;;;;;;;6.53;3.00;;;21.00;54.80;;;;;;5040454;28;20499;-70
2024/01/07 03:21:28;;;;;;;5.63;2.63;;;21.00;54.90;;;;;;5037572;28;20553;-69
2024/01/07 03:23:54;;;;;;;5.03;2.30;;;21.00;54.90;;;;;;5036805;28;20021;-69
2024/01/07 03:26:20;;;;;;;4.90;2.65;;;21.00;54.90;;;;;;5041890;28;20017;-70
2024/01/07 03:28:45;;;;;;;4.65;2.50;;;20.90;54.90;;;;;;5039107;28;20047;-69
2024/01/07 03:31:14;;;;;;;4.70;2.70;;;20.90;54.80;;;;;;5041048;28;20477;-69
2024/01/07 03:33:40;;;;;;;4.80;2.30;;;20.90;54.90;;;;;;5038863;28;20033;-70
2024/01/07 03:36:11;;;;;;;5.07;2.53;;;20.90;54.80;;;;;;5035959;28;20036;-69
2024/01/07 03:38:37;;;;;;;5.72;2.67;;;20.90;54.90;;;;;;5037439;28;20036;-69
2024/01/07 03:41:08;;;;;;;4.53;2.45;;;20.90;54.90;;;;;;5038720;28;20026;-69
2024/01/07 03:43:34;;;;;;;4.70;2.15;;;20.90;54.90;;;;;;5039901;28;20480;-69
2024/01/07 03:46:00;;;;;;;5.63;2.75;;;20.90;54.90;;;;;;5039289;28;20021;-69
2024/01/07 03:48:26;;;;;;;4.38;2.17;;;20.90;54.90;;;;;;5035004;28;20032;-69
2024/01/07 03:50:52;;;;;;;5.57;2.47;;;20.90;55.00;;;;;;5034049;28;20394;-65
2024/01/07 03:53:17;;;;;;;3.95;2.33;;;20.80;54.90;;;;;;5037348;28;20033;-65
2024/01/07 03:55:43;;;;;;;4.95;2.47;;;20.90;55.00;;;;;;5039356;28;20432;-66
2024/01/07 03:58:09;;;;;;;3.75;2.08;;;20.90;55.00;;;;;;5039846;28;20021;-66
2024/01/07 04:00:35;;;;;;;4.85;2.53;;;20.80;55.00;;;;;;5040434;28;20090;-65
2024/01/07 04:03:01;;;;;;;5.15;2.60;;;20.80;55.00;;;;;;5037457;28;20422;-66
2024/01/07 04:05:27;;;;;;;5.55;2.50;;;20.80;55.00;;;;;;5039509;28;20025;-65
2024/01/07 04:07:52;;;;;;;4.60;2.33;;;20.80;55.00;;;;;;5037999;28;20025;-66
2024/01/07 04:10:21;;;;;;;6.07;2.30;;;20.80;55.00;;;;;;5037504;28;20032;-66
2024/01/07 04:12:47;;;;;;;4.22;2.15;;;20.80;55.00;;;;;;5039505;28;20036;-71
2024/01/07 04:15:12;;;;;;;5.22;2.33;;;20.80;55.00;;;;;;5038021;28;20061;-70
2024/01/07 04:17:38;;;;;;;4.82;2.70;;;20.80;55.00;;;;;;5036229;28;20064;-69
2024/01/07 04:20:05;;;;;;;4.60;2.40;;;20.70;55.00;;;;;;5040696;28;20580;-71
2024/01/07 04:22:31;;;;;;;4.03;2.13;;;20.70;55.00;;;;;;5035731;28;20505;-70
2024/01/07 04:24:56;;;;;;;4.57;2.28;;;20.80;55.10;;;;;;5039506;28;20100;-71
2024/01/07 04:27:22;;;;;;;4.05;2.28;;;20.70;55.00;;;;;;5038954;28;20036;-71
2024/01/07 04:29:48;;;;;;;4.78;2.55;;;20.80;55.00;;;;;;5038192;28;20033;-70
2024/01/07 04:32:13;;;;;;;4.72;2.38;;;20.70;55.00;;;;;;5037779;28;20026;-64
2024/01/07 04:34:39;;;;;;;4.30;2.30;;;20.70;55.00;;;;;;5036660;28;20036;-65
2024/01/07 04:37:04;;;;;;;4.40;2.30;;;20.70;55.00;;;;;;5036776;28;20082;-64
2024/01/07 04:39:30;;;;;;;4.18;2.35;;;20.70;55.00;;;;;;5038764;28;20025;-64
2024/01/07 04:41:56;;;;;;;4.18;2.35;;;20.70;55.10;;;;;;5036889;28;20528;-64
2024/01/07 04:44:21;;;;;;;4.60;2.30;;;20.70;55.00;;;;;;5037167;28;20032;-65
2024/01/07 04:46:48;;;;;;;4.90;2.50;;;20.70;55.10;;;;;;5035024;28;20018;-65
2024/01/07 04:49:13;;;;;;;4.93;2.03;;;20.70;55.10;;;;;;5037522;28;20556;-64
2024/01/07 04:51:39;;;;;;;5.30;2.47;;;20.70;55.00;;;;;;5035287;28;20021;-65
2024/01/07 04:54:05;;;;;;;4.05;1.98;;;20.70;55.10;;;;;;5038712;28;20469;-63
2024/01/07 04:56:32;;;;;;;4.00;2.00;;;20.70;55.10;;;;;;5037673;28;20059;-66
2024/01/07 04:58:57;;;;;;;3.15;1.83;;;20.70;55.10;;;;;;5038136;28;20028;-65
2024/01/07 05:01:23;;;;;;;3.60;1.92;;;20.60;55.10;;;;;;5039979;28;20029;-70
2024/01/07 05:03:49;;;;;;;3.35;1.83;;;20.60;55.10;;;;;;5036530;28;20025;-71
2024/01/07 05:06:14;;;;;;;3.75;1.90;;;20.60;55.10;;;;;;5033578;28;20029;-70
2024/01/07 05:08:41;;;;;;;3.47;2.10;;;20.60;55.10;;;;;;5036876;28;20037;-71
2024/01/07 05:11:07;;;;;;;3.28;1.80;;;20.60;55.10;;;;;;5036751;28;20045;-70
2024/01/07 05:13:33;;;;;;;2.83;1.63;;;20.60;55.10;;;;;;5035655;28;20059;-71
2024/01/07 05:15:58;;;;;;;3.97;1.90;;;20.60;55.70;;;;;;5036940;28;20044;-71
2024/01/07 05:18:24;;;;;;;3.42;1.67;;;20.60;55.20;;;;;;5039112;28;20033;-70
2024/01/07 05:20:51;;;;;;;3.97;2.00;;;20.60;55.20;;;;;;5037005;28;20389;-70
2024/01/07 05:23:17;;;;;;;3.33;1.80;;;20.60;55.20;;;;;;5035919;28;20105;-70
2024/01/07 05:25:43;;;;;;;3.42;1.98;;;20.60;55.20;;;;;;5040852;28;20520;-69
2024/01/07 05:28:09;;;;;;;3.15;1.77;;;20.60;55.20;;;;;;5036861;28;20105;-69
2024/01/07 05:30:34;;;;;;;3.47;1.85;;;20.60;55.20;;;;;;5036771;28;20104;-70
2024/01/07 05:33:00;;;;;;;4.00;1.98;;;20.60;55.20;;;;;;5036245;28;20025;-68
2024/01/07 05:35:26;;;;;;;4.15;1.90;;;20.50;55.20;;;;;;5037506;28;20489;-69
2024/01/07 05:37:51;;;;;;;3.97;1.90;;;20.50;55.20;;;;;;5035136;28;20071;-69
2024/01/07 05:40:18;;;;;;;3.63;2.00;;;20.50;55.20;;;;;;5038825;28;20895;-66
2024/01/07 05:42:48;;;;;;;4.53;2.17;;;20.50;55.20;;;;;;5038110;28;20029;-71
2024/01/07 05:45:14;;;;;;;3.92;1.80;;;20.50;55.20;;;;;;5037292;28;20432;-71
2024/01/07 05:47:40;;;;;;;2.92;1.58;;;20.50;55.20;;;;;;5038635;28;20025;-71
2024/01/07 05:50:07;;;;;;;3.53;1.85;;;20.50;55.20;;;;;;5038816;28;20026;-70
2024/01/07 05:52:32;;;;;;;3.40;1.70;;;20.50;55.20;;;;;;5035396;28;20473;-71
2024/01/07 05:54:58;;;;;;;3.17;1.80;;;20.50;55.20;;;;;;5036302;28;20110;-71
2024/01/07 05:57:24;;;;;;;2.83;1.80;;;20.50;55.30;;;;;;5035401;28;20381;-70
2024/01/07 05:59:52;;;;;;;3.15;1.63;;;20.50;55.30;;;;;;5038927;28;20028;-71
2024/01/07 06:02:18;;;;;;;2.80;1.50;;;20.50;55.30;;;;;;5041441;28;20067;-71
2024/01/07 06:04:44;;;;;;;2.80;1.70;;;20.50;55.30;;;;;;5042713;28;20033;-70
2024/01/07 06:07:09;;;;;;;2.97;1.45;;;20.50;55.30;;;;;;5038156;28;20045;-70
2024/01/07 06:09:35;;;;;;;3.60;2.10;;;20.50;55.30;;;;;;5039095;28;20392;-70
2024/01/07 06:12:01;;;;;;;2.70;1.60;;;20.50;55.30;;;;;;5040536;28;20388;-70
2024/01/07 06:14:27;;;;;;;2.70;1.67;;;20.50;55.30;;;;;;5040661;28;20025;-71
2024/01/07 06:16:53;;;;;;;2.63;1.40;;;20.50;55.30;;;;;;5041775;28;20052;-70
2024/01/07 06:19:18;;;;;;;2.72;1.55;;;20.50;55.30;;;;;;5038863;28;20064;-71
2024/01/07 06:21:45;;;;;;;3.13;1.67;;;20.40;55.30;;;;;;5038688;28;20029;-71
2024/01/07 06:24:11;;;;;;;2.90;1.60;;;20.40;55.30;;;;;;5043452;28;20021;-70
2024/01/07 06:26:36;;;;;;;3.15;1.60;;;20.40;55.30;;;;;;5038893;28;20060;-71
2024/01/07 06:29:02;;;;;;;2.53;1.50;;;20.40;55.30;;;;;;5037864;28;20477;-71
2024/01/07 06:31:28;;;;;;;3.17;1.63;;;20.40;55.20;;;;;;5041715;28;20116;-65
2024/01/07 06:33:55;;;;;;;2.55;1.45;;;20.40;55.30;;;;;;5038490;28;20091;-66
2024/01/07 06:36:21;;;;;;;2.58;1.30;;;20.40;55.20;;;;;;5041059;28;20029;-65
2024/01/07 06:38:48;;;;;;;2.45;1.40;;;20.40;55.30;;;;;;5038345;28;20509;-65
2024/01/07 06:41:14;;;;;;;2.97;1.60;;;20.40;55.20;;;;;;5037912;28;20025;-65
2024/01/07 06:43:39;;;;;;;2.72;1.60;;;20.40;55.20;;;;;;5039491;28;20036;-67
2024/01/07 06:46:05;;;;;;;3.10;1.50;;;20.40;55.20;;;;;;5041231;28;20025;-66
2024/01/07 06:48:31;;;;;;;2.65;1.38;;;20.40;55.30;;;;;;5039971;28;20084;-66
2024/01/07 06:50:57;;;;;;;2.53;1.50;;;20.40;55.30;;;;;;5040626;28;20026;-64
2024/01/07 06:53:23;;;;;;;2.90;1.60;;;20.40;55.30;;;;;;5034940;28;20030;-63
2024/01/07 06:55:49;;;;;;;3.42;1.83;;;20.40;55.30;;;;;;5039271;28;20037;-67
2024/01/07 06:58:14;;;;;;;2.38;1.40;;;20.40;55.30;;;;;;5038840;28;20123;-65
2024/01/07 07:00:40;;;;;;;2.60;1.40;;;20.40;55.30;;;;;;5041395;28;20032;-65
2024/01/07 07:03:06;;;;;;;2.40;1.40;;;20.30;55.30;;;;;;5039489;28;20392;-64
2024/01/07 07:05:32;;;;;;;2.75;1.30;;;20.30;55.20;;;;;;5040907;28;20477;-64
2024/01/07 07:07:58;;;;;;;2.22;1.30;;;20.30;55.30;;;;;;5036838;28;20027;-64
2024/01/07 07:10:24;;;;;;;2.05;1.20;;;20.30;55.20;;;;;;5039434;28;20033;-63
2024/01/07 07:12:52;;;;;;;2.25;1.40;;;20.30;55.20;;;;;;5039130;28;20025;-64
2024/01/07 07:15:18;;;;;;;2.40;1.35;;;20.40;55.30;;;;;;5040316;28;20044;-64
2024/01/07 07:17:43;;;;;;;2.65;1.27;;;20.30;55.80;;;;;;5039250;28;20434;-63
2024/01/07 07:20:09;;;;;;;2.78;1.42;;;20.30;55.20;;;;;;5040564;28;20036;-64
2024/01/07 07:22:35;;;;;;;2.22;1.33;;;20.30;55.30;;;;;;5037670;28;20029;-70
2024/01/07 07:25:02;;;;;;;2.53;1.30;;;20.30;55.30;;;;;;5040407;28;20029;-70
2024/01/07 07:27:27;;;;;;;2.30;1.25;;;20.30;55.30;;;;;;5038812;28;20151;-70
2024/01/07 07:29:53;;;;;;;2.42;1.50;;;20.30;55.30;;;;;;5040921;28;20459;-70
2024/01/07 07:32:18;;;;;;;2.08;1.30;;;20.30;55.30;;;;;;5041014;28;20585;-70
2024/01/07 07:34:44;;;;;;;2.92;1.60;;;20.30;55.30;;;;;;5039860;28;20040;-69
2024/01/07 07:37:10;;;;;;;2.40;1.38;;;20.30;55.30;;;;;;5038337;28;20119;-69
2024/01/07 07:39:35;;;;;;;2.40;1.45;;;20.30;55.30;;;;;;5038748;28;20033;-70
2024/01/07 07:42:01;;;;;;;3.00;1.50;;;20.30;55.30;;;;;;5041701;28;20029;-64
2024/01/07 07:44:27;;;;;;;2.70;1.30;;;20.30;55.30;;;;;;5038994;28;20048;-65
2024/01/07 07:46:52;;;;;;;2.33;1.33;;;20.30;55.30;;;;;;5040928;28;20022;-64
2024/01/07 07:49:18;;;;;;;2.10;1.20;;;20.20;55.30;;;;;;5039090;28;20028;-64
2024/01/07 07:51:44;;;;;;;1.75;1.23;;;20.30;55.30;;;;;;5040076;28;20034;-66
2024/01/07 07:54:09;;;;;;;2.40;1.20;;;20.20;55.30;;;;;;5037648;28;20048;-65
2024/01/07 07:56:35;;;;;;;2.33;1.42;;;20.30;55.30;;;;;;5039079;28;20053;-64
2024/01/07 07:59:02;;;;;;;2.50;1.50;;;20.20;55.30;;;;;;5037647;28;20453;-64
2024/01/07 08:01:28;;;;;;;2.05;1.13;;;20.30;55.30;;;;;;5038709;28;20027;-69
2024/01/07 08:03:53;;;;;;;2.40;1.30;;;20.20;55.30;;;;;;5039142;28;20030;-70
2024/01/07 08:06:19;;;;;;;1.85;1.20;;;20.30;55.30;;;;;;5041398;28;20119;-70
2024/01/07 08:08:45;;;;;;;2.58;1.42;;;20.20;55.30;;;;;;5036567;28;20025;-70
2024/01/07 08:11:10;;;;;;;2.78;1.38;;;20.20;55.30;;;;;;5042613;28;20421;-69
2024/01/07 08:13:37;;;;;;;2.63;1.40;;;20.20;55.30;;;;;;5036374;28;20385;-70
2024/01/07 08:16:04;;;;;;;3.35;1.30;;;20.20;55.30;;;;;;5034038;28;20549;-70
2024/01/07 08:18:29;;;;;;;2.15;1.27;;;20.20;55.30;;;;;;5037220;28;20039;-70
2024/01/07 08:20:55;;;;;;;2.90;1.40;;;20.20;55.30;;;;;;5038259;28;20474;-70
2024/01/07 08:23:21;;;;;;;2.58;1.45;;;20.20;55.30;;;;;;5038255;28;20549;-70
2024/01/07 08:25:46;;;;;;;1.98;1.10;;;20.20;55.30;;;;;;5038473;28;20040;-70
2024/01/07 08:28:12;;;;;;;2.30;1.30;;;20.20;55.30;;;;;;5037556;28;20083;-69
2024/01/07 08:30:38;;;;;;;2.80;1.45;;;20.20;55.30;;;;;;5036832;28;20049;-70
2024/01/07 08:33:04;;;;;;;2.70;1.60;;;20.20;55.30;;;;;;5038775;28;20033;-63
2024/01/07 08:35:29;;;;;;;2.28;1.33;;;20.20;55.30;;;;;;5039083;28;20116;-63
2024/01/07 08:37:55;;;;;;;2.67;1.63;;;20.20;55.20;;;;;;5034458;28;20086;-63
2024/01/07 08:40:20;;;;;;;1.80;1.10;;;20.20;55.20;;;;;;5035897;28;20056;-64
2024/01/07 08:42:46;;;;;;;2.42;1.20;;;20.20;55.20;;;;;;5038759;28;20022;-65
2024/01/07 08:45:12;;;;;;;3.60;1.20;;;20.20;55.20;;;;;;5034774;28;20481;-64
2024/01/07 08:47:37;;;;;;;2.42;1.42;;;20.20;55.20;;;;;;5038776;28;20036;-64
2024/01/07 08:50:03;;;;;;;2.30;1.38;;;20.20;55.20;;;;;;5035259;28;20025;-63
2024/01/07 08:52:29;;;;;;;2.60;1.35;;;20.20;55.20;;;;;;5038414;28;20044;-68
2024/01/07 08:54:55;;;;;;;2.53;1.35;;;20.20;55.20;;;;;;5038094;28;20520;-68
2024/01/07 08:57:20;;;;;;;2.25;1.30;;;20.20;55.20;;;;;;5036661;28;20020;-69
2024/01/07 08:59:46;;;;;;;2.05;1.30;;;20.20;55.20;;;;;;5039716;28;20370;-66
2024/01/07 09:02:13;;;;;;;2.17;1.20;;;20.20;55.20;;;;;;5035411;28;20416;-68
2024/01/07 09:04:39;;;;;;;2.90;1.42;;;20.20;55.20;;;;;;5037474;28;20470;-67
2024/01/07 09:07:04;;;;;;;2.53;1.42;;;20.20;55.20;;;;;;5038504;28;20087;-68
2024/01/07 09:09:30;;;;;;;2.55;1.40;;;20.10;55.10;;;;;;5036684;28;20366;-68
2024/01/07 09:11:57;;;;;;;2.45;1.42;;;20.20;55.10;;;;;;5040214;28;20079;-69
2024/01/07 09:14:25;;;;;;;2.10;1.30;;;20.10;55.10;;;;;;5037291;28;20028;-70
2024/01/07 09:16:50;;;;;;;2.70;1.50;;;20.20;55.10;;;;;;5037200;28;20810;-70
2024/01/07 09:19:17;;;;;;;3.20;1.50;;;20.20;55.10;;;;;;5037773;28;20029;-69
2024/01/07 09:21:43;;;;;;;2.42;1.50;;;20.10;55.10;;;;;;5038145;28;20043;-69
2024/01/07 09:24:09;;;;;;;1.95;1.10;;;20.10;55.10;;;;;;5036590;28;20404;-69
2024/01/07 09:26:34;;;;;;;2.03;1.15;;;20.10;55.10;;;;;;5038354;28;20026;-70
2024/01/07 09:29:01;;;;;;;2.20;1.30;;;20.10;55.10;;;;;;5037394;28;20030;-69
2024/01/07 09:31:27;;;;;;;2.67;1.35;;;20.10;55.10;;;;;;5038858;28;20508;-69
2024/01/07 09:33:52;;;;;;;2.58;1.33;;;20.10;55.10;;;;;;5038640;28;20049;-70
2024/01/07 09:36:18;;;;;;;2.53;1.30;;;20.10;55.10;;;;;;5041904;28;20538;-70
2024/01/07 09:38:44;;;;;;;2.17;1.23;;;20.10;55.10;;;;;;5041304;28;20036;-69
2024/01/07 09:41:09;;;;;;;2.35;1.40;;;20.10;55.10;;;;;;5041487;28;20026;-65
2024/01/07 09:43:35;;;;;;;2.28;1.40;;;20.10;55.10;;;;;;5041580;28;20021;-63
2024/01/07 09:46:03;;;;;;;2.08;1.30;;;20.10;55.10;;;;;;5040663;28;20068;-64
2024/01/07 09:48:29;;;;;;;1.90;1.20;;;20.10;55.10;;;;;;5042913;28;20116;-64
2024/01/07 09:50:57;;;;;;;2.28;1.27;;;20.10;55.10;;;;;;5043382;28;20470;-65
2024/01/07 09:53:26;;;;;;;2.20;1.40;;;20.10;55.10;;;;;;5039378;28;20136;-64
2024/01/07 09:56:07;;;;;;;2.33;1.52;;;20.10;55.10;;;;;;5042260;28;20497;-64
2024/01/07 09:58:33;;;;;;;2.13;1.38;;;20.10;55.10;;;;;;5041980;28;20045;-64
2024/01/07 10:00:59;;;;;;;2.70;1.60;;;20.00;55.10;;;;;;5039938;28;20444;-68
2024/01/07 10:03:25;;;;;;;3.08;1.25;;;20.10;55.10;;;;;;5041981;28;20048;-68
2024/01/07 10:05:51;;;;;;;2.65;1.40;;;20.10;55.10;;;;;;5042329;28;20064;-68
2024/01/07 10:08:17;;;;;;;2.42;1.42;;;20.00;55.10;;;;;;5039861;28;20021;-69
2024/01/07 10:10:43;;;;;;;2.63;1.33;;;20.10;55.10;;;;;;5039462;28;20032;-68
2024/01/07 10:13:09;;;;;;;1.83;1.20;;;20.00;55.10;;;;;;5043224;28;20033;-68
2024/01/07 10:15:34;;;;;;;3.15;1.30;;;20.10;55.10;;;;;;5040921;28;20029;-69
2024/01/07 10:18:07;;;;;;;2.72;1.45;;;20.00;55.10;;;;;;5041831;28;20032;-69
2024/01/07 10:20:34;;;;;;;1.98;1.20;;;20.00;55.10;;;;;;5039241;28;20036;-68
2024/01/07 10:23:00;;;;;;;2.33;1.40;;;20.00;55.10;;;;;;5041631;28;20017;-69
2024/01/07 10:25:25;;;;;;;1.83;1.23;;;20.00;55.10;;;;;;5038162;28;20052;-67
2024/01/07 10:27:52;;;;;;;2.00;1.33;;;20.00;55.10;;;;;;5041576;28;20725;-68
2024/01/07 10:30:17;;;;;;;2.67;1.52;;;20.00;55.10;;;;;;5039831;28;20474;-68
2024/01/07 10:32:43;;;;;;;2.30;1.20;;;20.00;55.10;;;;;;5040045;28;20029;-68
2024/01/07 10:35:14;;;;;;;2.08;1.20;;;20.00;55.10;;;;;;5039831;28;20044;-68
2024/01/07 10:37:39;;;;;;;2.80;1.50;;;20.00;55.10;;;;;;5040843;28;20420;-68
2024/01/07 10:40:07;;;;;;;1.67;1.20;;;20.00;55.10;;;;;;5038271;28;20029;-68
2024/01/07 10:42:33;;;;;;;2.53;1.50;;;20.00;55.10;;;;;;5040319;28;20040;-69
2024/01/07 10:45:02;;;;;;;2.28;1.20;;;20.00;55.10;;;;;;5039900;28;20013;-67
2024/01/07 10:47:33;;;;;;;2.72;1.40;;;20.00;55.10;;;;;;5040411;28;20025;-66
2024/01/07 10:49:59;;;;;;;2.22;1.30;;;20.00;55.10;;;;;;5039394;28;20029;-67
2024/01/07 10:52:28;;;;;;;2.58;1.60;;;20.00;55.10;;;;;;5041709;28;20056;-63
2024/01/07 10:54:57;;;;;;;2.63;1.58;;;20.00;55.10;;;;;;5037852;28;20030;-63
2024/01/07 10:57:34;;;;;;;2.42;1.35;;;20.00;55.10;;;;;;5038187;28;20034;-64
2024/01/07 11:00:06;;;;;;;2.47;1.45;;;19.90;55.10;;;;;;5041427;28;20017;-62
2024/01/07 11:02:32;;;;;;;2.28;1.50;;;19.90;55.10;;;;;;5039210;28;20033;-63
2024/01/07 11:05:11;;;;;;;2.30;1.20;;;20.00;55.10;;;;;;5041306;28;20048;-64
2024/01/07 11:07:44;;;;;;;2.30;1.33;;;20.00;55.10;;;;;;5032803;28;20086;-65
2024/01/07 11:10:18;;;;;;;2.30;1.40;;;20.00;55.10;;;;;;5036778;28;20534;-63
2024/01/07 11:12:52;;;;;;;2.42;1.40;;;19.90;55.10;;;;;;5040862;28;20032;-66
2024/01/07 11:15:47;;;;;;;2.85;1.38;;;20.00;55.10;;;;;;5040018;28;20029;-64
2024/01/07 11:18:18;;;;;;;1.67;1.10;;;19.90;55.10;;;;;;5037437;28;20037;-63
2024/01/07 11:20:45;;;;;;;2.40;1.50;;;19.90;55.10;;;;;;5038924;28;20030;-64
2024/01/07 11:23:37;;;;;;;3.08;1.77;;;19.90;55.10;;;;;;5040474;28;20044;-64
2024/01/07 11:26:03;;;;;;;2.53;1.33;;;19.90;55.10;;;;;;5035085;28;20522;-64
2024/01/07 11:28:48;;;;;;;2.42;1.40;;;19.90;55.10;;;;;;5041330;28;20028;-64
2024/01/07 11:31:18;;;;;;;2.33;1.38;;;19.90;55.10;;;;;;5038218;28;20367;-68
2024/01/07 11:33:49;;;;;;;2.95;1.40;;;19.90;55.10;;;;;;5034364;28;20091;-69
2024/01/07 11:36:16;;;;;;;2.33;1.58;;;19.90;55.10;;;;;;5039082;28;20021;-69
2024/01/07 11:38:51;;;;;;;2.42;1.55;;;19.90;55.20;;;;;;5035859;28;20026;-68
2024/01/07 11:41:18;;;;;;;2.10;1.40;;;19.90;55.20;;;;;;5036897;28;20448;-69
2024/01/07 11:43:54;;;;;;;1.88;1.20;;;19.90;55.10;;;;;;5038013;28;20025;-68
2024/01/07 11:46:20;;;;;;;3.00;1.70;;;19.90;55.20;;;;;;5040046;28;20489;-68
2024/01/07 11:48:46;;;;;;;2.63;1.40;;;19.90;55.20;;;;;;5038793;28;20436;-68
2024/01/07 11:51:12;;;;;;;2.47;1.50;;;19.90;55.20;;;;;;5038648;28;20044;-68
2024/01/07 11:53:37;;;;;;;2.63;1.40;;;19.90;55.20;;;;;;5038278;28;20182;-68
2024/01/07 11:56:04;;;;;;;2.90;1.60;;;19.90;55.70;;;;;;5038748;28;20433;-68
2024/01/07 11:58:30;;;;;;;2.90;1.55;;;19.80;55.10;;;;;;5039464;28;20024;-68
2024/01/07 12:00:56;;;;;;;2.95;1.70;;;19.90;55.20;;;;;;5039236;28;20032;-64
2024/01/07 12:03:25;;;;;;;2.38;1.60;;;19.90;55.20;;;;;;5039480;28;20068;-63
2024/01/07 12:05:51;;;;;;;2.90;1.70;;;19.90;55.20;;;;;;5039410;28;20101;-63
2024/01/07 12:08:17;;;;;;;3.15;1.52;;;19.90;55.20;;;;;;5038138;28;20461;-63
2024/01/07 12:10:43;;;;;;;3.30;1.80;;;19.90;55.20;;;;;;5037406;28;20057;-64
2024/01/07 12:13:10;;;;;;;2.85;1.67;;;19.90;55.20;;;;;;5037871;28;20511;-63
2024/01/07 12:15:37;;;;;;;2.88;1.67;;;19.80;55.10;;;;;;5037821;28;20465;-63
2024/01/07 12:18:04;;;;;;;2.97;1.70;;;19.80;55.10;;;;;;5039441;28;20037;-63
2024/01/07 12:20:30;;;;;;;2.70;1.60;;;19.80;55.10;;;;;;5040067;28;20075;-64
2024/01/07 12:22:57;;;;;;;4.35;1.80;;;19.80;55.10;;;;;;5038503;28;20374;-67
2024/01/07 12:25:26;;;;;;;3.35;1.90;;;19.80;55.10;;;;;;5035991;28;20544;-68
2024/01/07 12:27:54;;;;;;;3.05;2.00;;;19.90;55.40;;;;;;5035747;28;20025;-67
2024/01/07 12:30:20;;;;;;;3.90;2.00;;;19.90;55.40;;;;;;5036910;28;20038;-68
2024/01/07 12:32:46;;;;;;;3.58;2.10;;;19.90;55.40;;;;;;5039148;28;20460;-67
2024/01/07 12:35:12;;;;;;;3.30;2.10;;;19.90;55.40;;;;;;5037264;28;20041;-68
2024/01/07 12:37:38;;;;;;;3.38;2.20;;;20.00;55.40;;;;;;5036966;28;20036;-67
2024/01/07 12:40:04;;;;;;;3.78;2.40;;;20.00;55.30;;;;;;5038288;28;20480;-67
2024/01/07 12:42:30;;;;;;;4.00;2.20;;;20.00;55.20;;;;;;5039528;28;20072;-63